CHIUDI BANNER

LIVE Streaming HD
Get Adobe Flash player
Dati meteo stazione (refresh automatico ogni minuto)
Ostia(RM) VENTO: VELOCITÀ   PIOGGIA: QTA GIORNO TEMPERATURA: ATTUALE
SPOT: Kursaal Lido Ostia ---- Posizione su Googlemap:Latitudine: 41.71N Longitudine: 12.31E RAFFICA MASSIMA: QTA MENSILE: MASSIMA:
VELOCITÀ MEDIA: QTA ANNUALE: MINIMA:
DIREZIONE: UMIDITÀ: WIND CHILL:
TIPO: DEW POINT:
BEAUFORT: PRESSIONE:
I nostri partner
Ostia(RM) nelle ultime ore
Applica filtri in visualizzazione Intervallo delle letture nelle ultime

Ora Direzione Vento Velocita' Vento Media Vento Raffica Max. Temperatura Wind Chill Pioggia Pressione
14:24:18159 °(SSE)0 Kts0 Kts12.5 Kts18.7 °C24.74 °C0 mm1021.9 Hpa
14:19:26139 °(SE)0 Kts0 Kts12.5 Kts18.7 °C24.74 °C0 mm1021.1 Hpa
14:14:30153 °(SSE)0 Kts1.2 Kts12.5 Kts18.7 °C24.74 °C0 mm1020.7 Hpa
14:09:37146 °(SE)1.7 Kts4.6 Kts12.5 Kts18.8 °C20.14 °C0 mm1022.4 Hpa
14:04:45152 °(SSE)0 Kts0 Kts12.5 Kts19 °C24.92 °C0 mm1021.1 Hpa
13:59:25150 °(SSE)8.5 Kts7.26 Kts12.5 Kts19 °C18.98 °C0 mm1022.4 Hpa
13:54:24157 °(SSE)0 Kts0 Kts12.5 Kts19.1 °C24.99 °C0 mm1022.4 Hpa
13:49:33148 °(SSE)9.4 Kts6.23 Kts12.5 Kts19.2 °C19.19 °C0 mm1021.6 Hpa
13:44:41157 °(SSE)0 Kts0 Kts12.5 Kts19.2 °C25.05 °C0 mm1020.8 Hpa
13:39:27148 °(SSE)0 Kts2.76 Kts12.5 Kts19.5 °C25.23 °C0 mm1022 Hpa
13:34:40142 °(SE)5.9 Kts0.96 Kts12.5 Kts19.6 °C20.04 °C0 mm1021.2 Hpa
13:29:45154 °(SSE)0 Kts0 Kts12.5 Kts19.7 °C25.36 °C0 mm1021.7 Hpa
13:24:20155 °(SSE)0 Kts0 Kts12.5 Kts19.8 °C25.42 °C0 mm1022.9 Hpa
13:19:30152 °(SSE)0 Kts0 Kts12.5 Kts20.1 °C25.61 °C0 mm1022.1 Hpa
13:14:41151 °(SSE)2.5 Kts2.23 Kts12.5 Kts20.3 °C21.52 °C0 mm1021.3 Hpa
13:08:49147 °(SSE)0 Kts2.03 Kts12.5 Kts20.7 °C25.98 °C0 mm1022.7 Hpa
13:04:32141 °(SE)0 Kts0 Kts12.5 Kts20.8 °C26.04 °C0 mm1022.7 Hpa
12:59:40146 °(SE)0 Kts0 Kts12.5 Kts20.7 °C25.98 °C0 mm1020.9 Hpa
12:54:20143 °(SE)0 Kts0 Kts12.5 Kts20.2 °C25.67 °C0 mm1022.6 Hpa
12:49:32131 °(SE)3.3 Kts10.23 Kts12.5 Kts20.2 °C21.24 °C0 mm1021.8 Hpa
12:43:49141 °(SE)0 Kts0 Kts12.5 Kts20.5 °C25.86 °C0 mm1020.5 Hpa
12:38:23152 °(SSE)0 Kts0 Kts12.5 Kts20.7 °C25.98 °C0 mm1021.8 Hpa
12:34:38126 °(SE)3.1 Kts0 Kts12.5 Kts21.1 °C22.32 °C0 mm1021 Hpa
12:29:18142 °(SE)0 Kts0 Kts12.5 Kts21.6 °C26.54 °C0 mm1020.7 Hpa